Time;durP1;ratioP1;P1;durP2;ratioP2;P2;SDS_P1;SDS_P2;PMS_P1;PMS_P2;Temp;Humidity;BMP_temperature;BMP_pressure;BME280_temperature;BME280_humidity;BME280_pressure;Samples;Min_cycle;Max_cycle;Signal;HPM_P1;HPM_P2
2020/12/10 00:01:36;;;;;;;75.00;26.73;;;;;;;4.37;73.35;99170.66;4976584;28;20513;-87
2020/12/10 00:04:02;;;;;;;111.35;27.05;;;;;;;4.36;73.44;99173.31;4976619;28;20051;-86
2020/12/10 00:06:29;;;;;;;126.20;26.50;;;;;;;4.36;73.61;99175.94;4977639;28;20055;-86
2020/12/10 00:08:56;;;;;;;72.35;24.35;;;;;;;4.36;73.41;99178.53;4977799;28;20047;-86
2020/12/10 00:11:22;;;;;;;51.85;23.33;;;;;;;4.36;73.64;99171.56;4977584;28;20043;-86
2020/12/10 00:13:48;;;;;;;58.95;23.45;;;;;;;4.35;73.63;99166.44;4977295;28;20047;-86
2020/12/10 00:16:14;;;;;;;61.35;23.45;;;;;;;4.36;73.52;99152.47;4977521;28;20485;-86
2020/12/10 00:18:41;;;;;;;67.22;23.85;;;;;;;4.37;73.35;99155.03;4977468;28;20086;-86
2020/12/10 00:21:08;;;;;;;74.65;23.25;;;;;;;4.36;73.43;99155.94;4976250;28;20074;-86
2020/12/10 00:23:34;;;;;;;69.25;21.02;;;;;;;4.39;73.15;99160.19;4975980;28;20505;-86
2020/12/10 00:26:01;;;;;;;69.25;23.10;;;;;;;4.40;73.29;99167.06;4976084;28;20057;-86
2020/12/10 00:28:27;;;;;;;93.07;25.65;;;;;;;4.40;72.99;99164.47;4976368;28;20394;-87
2020/12/10 00:30:53;;;;;;;92.43;25.38;;;;;;;4.41;73.27;99155.78;4977432;28;20062;-86
2020/12/10 00:33:19;;;;;;;68.63;24.60;;;;;;;4.41;73.44;99153.16;4977062;28;20051;-86
2020/12/10 00:35:45;;;;;;;69.07;24.67;;;;;;;4.40;73.55;99151.44;4976161;28;20073;-87
2020/12/10 00:38:11;;;;;;;64.10;22.15;;;;;;;4.41;73.57;99155.78;4977163;28;20058;-86
2020/12/10 00:40:38;;;;;;;62.13;25.30;;;;;;;4.42;73.49;99157.44;4975865;28;20046;-86
2020/12/10 00:43:04;;;;;;;68.70;24.95;;;;;;;4.43;73.38;99153.94;4975769;28;20405;-86
2020/12/10 00:45:30;;;;;;;72.93;24.65;;;;;;;4.45;73.48;99153.88;4977161;28;20055;-86
2020/12/10 00:47:57;;;;;;;75.50;24.50;;;;;;;4.46;73.57;99151.22;4976086;28;20470;-86
2020/12/10 00:50:23;;;;;;;58.47;24.00;;;;;;;4.47;73.56;99150.28;4976942;28;20092;-86
2020/12/10 00:52:49;;;;;;;66.53;24.05;;;;;;;4.47;73.20;99150.28;4975586;28;20512;-86
2020/12/10 00:55:15;;;;;;;59.78;23.58;;;;;;;4.46;73.17;99132.09;4975457;28;20047;-86
2020/12/10 00:57:42;;;;;;;64.65;22.58;;;;;;;4.43;73.23;99128.72;4975703;28;20062;-86
2020/12/10 01:00:10;;;;;;;61.75;23.58;;;;;;;4.43;73.12;99126.13;4975777;28;20054;-86
2020/12/10 01:02:36;;;;;;;73.88;26.35;;;;;;;4.43;73.39;99122.66;4975390;28;20441;-86
2020/12/10 01:05:04;;;;;;;86.25;26.10;;;;;;;4.44;73.26;99121.75;4976800;28;20134;-86
2020/12/10 01:07:31;;;;;;;54.03;22.48;;;;;;;4.43;73.33;99115.69;4974067;28;20050;-87
2020/12/10 01:09:57;;;;;;;70.05;22.15;;;;;;;4.45;73.26;99117.38;4975356;28;20146;-86
2020/12/10 01:12:23;;;;;;;43.47;18.95;;;;;;;4.44;73.11;99116.53;4976453;28;20062;-86
2020/12/10 01:14:50;;;;;;;62.78;21.23;;;;;;;4.44;73.27;99113.91;4975357;28;20058;-86
2020/12/10 01:17:16;;;;;;;63.33;24.88;;;;;;;4.43;72.86;99117.44;4976456;28;20069;-86
2020/12/10 01:19:43;;;;;;;89.85;25.50;;;;;;;4.43;72.99;99112.22;4976562;28;20076;-86
2020/12/10 01:22:13;;;;;;;51.80;21.10;;;;;;;4.44;73.38;99111.31;4975096;28;20053;-86
2020/12/10 01:24:40;;;;;;;82.47;25.45;;;;;;;4.44;73.03;99108.72;4975223;28;20501;-86
2020/12/10 01:27:06;;;;;;;61.70;21.60;;;;;;;4.46;73.11;99124.28;4976320;28;20055;-86
2020/12/10 01:29:32;;;;;;;60.63;23.15;;;;;;;4.43;73.05;99117.44;4976377;28;20050;-86
2020/12/10 01:31:58;;;;;;;57.65;24.75;;;;;;;4.45;73.06;99114.78;4974894;28;20536;-87
2020/12/10 01:34:24;;;;;;;61.40;23.98;;;;;;;4.44;73.51;99108.72;4975146;28;20121;-86
2020/12/10 01:36:50;;;;;;;101.10;26.90;;;;;;;4.45;73.39;99120.81;4976110;28;20405;-86
2020/12/10 01:39:17;;;;;;;70.47;26.73;;;;;;;4.47;73.29;99123.38;4976152;28;20051;-86
2020/12/10 01:41:43;;;;;;;63.90;24.90;;;;;;;4.47;73.60;99124.22;4974718;28;20052;-86
2020/12/10 01:44:12;;;;;;;70.07;26.25;;;;;;;4.48;73.35;99130.28;4974752;28;20425;-86
2020/12/10 01:46:41;;;;;;;66.57;25.60;;;;;;;4.47;73.46;99132.03;4975962;28;20491;-86
2020/12/10 01:49:08;;;;;;;63.63;26.33;;;;;;;4.50;73.51;99125.84;4975923;28;20528;-86
2020/12/10 01:51:34;;;;;;;59.05;24.55;;;;;;;4.51;73.27;99119.72;4975683;28;20043;-86
2020/12/10 01:54:02;;;;;;;63.75;26.98;;;;;;;4.51;73.16;99117.97;4974574;28;20050;-86
2020/12/10 01:56:28;;;;;;;60.22;24.60;;;;;;;4.51;73.37;99111.91;4974642;28;20061;-86
2020/12/10 01:58:55;;;;;;;61.65;25.80;;;;;;;4.51;73.27;99110.16;4974709;28;20142;-86
2020/12/10 02:01:21;;;;;;;59.67;25.40;;;;;;;4.51;73.29;99110.16;4974502;28;20051;-86
2020/12/10 02:03:47;;;;;;;57.47;24.55;;;;;;;4.49;73.32;99111.97;4975266;28;20059;-86
2020/12/10 02:06:13;;;;;;;63.15;27.05;;;;;;;4.48;73.12;99097.25;4975216;28;20494;-87
2020/12/10 02:08:41;;;;;;;57.83;26.77;;;;;;;4.48;73.23;99086.81;4974424;28;20057;-86
2020/12/10 02:11:09;;;;;;;59.00;26.05;;;;;;;4.47;72.98;99090.34;4975394;28;20061;-87
2020/12/10 02:13:35;;;;;;;61.45;25.70;;;;;;;4.46;73.06;99083.44;4974181;28;20054;-86
2020/12/10 02:16:02;;;;;;;66.50;25.08;;;;;;;4.47;73.22;99090.34;4975338;28;20054;-86
2020/12/10 02:18:28;;;;;;;63.60;26.80;;;;;;;4.46;73.11;99080.84;4975112;28;20055;-86
2020/12/10 02:20:55;;;;;;;68.15;27.83;;;;;;;4.45;73.46;99080.91;4974227;28;20058;-86
2020/12/10 02:23:21;;;;;;;71.05;28.35;;;;;;;4.45;73.14;99078.28;4973848;28;20055;-86
2020/12/10 02:25:47;;;;;;;72.88;29.00;;;;;;;4.46;73.35;99072.16;4975267;28;20055;-86
2020/12/10 02:28:16;;;;;;;55.17;25.27;;;;;;;4.46;73.21;99074.78;4975292;28;20057;-86
2020/12/10 02:30:43;;;;;;;72.40;27.25;;;;;;;4.48;73.16;99070.34;4974191;28;20413;-86
2020/12/10 02:33:10;;;;;;;64.95;27.15;;;;;;;4.48;73.23;99071.19;4973663;28;20047;-86
2020/12/10 02:35:39;;;;;;;72.53;29.15;;;;;;;4.48;73.05;99065.97;4973944;28;20394;-86
2020/12/10 02:38:07;;;;;;;64.10;27.98;;;;;;;4.48;73.08;99063.38;4973672;28;20047;-87
2020/12/10 02:40:37;;;;;;;70.88;30.45;;;;;;;4.47;72.92;99066.88;4973949;28;20062;-86
2020/12/10 02:43:03;;;;;;;68.63;29.23;;;;;;;4.48;73.03;99063.38;4973546;28;20051;-86
2020/12/10 02:45:30;;;;;;;63.85;28.88;;;;;;;4.48;73.53;99052.13;4973857;28;20413;-86
2020/12/10 02:47:57;;;;;;;58.42;25.73;;;;;;;4.48;73.25;99055.53;4975060;28;20058;-86
2020/12/10 02:50:23;;;;;;;58.42;25.35;;;;;;;4.49;73.21;99046.81;4973597;28;20062;-86
2020/12/10 02:52:50;;;;;;;63.72;28.42;;;;;;;4.49;73.41;99049.41;4973456;28;20414;-86
2020/12/10 02:55:16;;;;;;;56.80;25.73;;;;;;;4.51;72.90;99057.16;4973773;28;20414;-86
2020/12/10 02:57:42;;;;;;;62.53;28.52;;;;;;;4.50;73.25;99053.75;4974620;28;20050;-86
2020/12/10 03:00:10;;;;;;;64.25;28.55;;;;;;;4.51;73.20;99059.78;4973618;28;20066;-86
2020/12/10 03:02:37;;;;;;;63.58;28.00;;;;;;;4.49;72.73;99067.66;4973102;28;20050;-86
2020/12/10 03:05:06;;;;;;;64.05;29.00;;;;;;;4.48;72.67;99062.53;4974582;28;20047;-86
2020/12/10 03:07:33;;;;;;;65.32;28.02;;;;;;;4.45;72.99;99050.47;4974543;28;20074;-87
2020/12/10 03:10:00;;;;;;;61.80;27.20;;;;;;;4.43;72.68;99063.56;4973571;28;20054;-86
2020/12/10 03:12:26;;;;;;;65.78;27.95;;;;;;;4.41;72.71;99051.53;4973272;28;20494;-87
2020/12/10 03:14:52;;;;;;;62.75;28.63;;;;;;;4.37;72.87;99053.41;4974577;28;20065;-86
2020/12/10 03:17:18;;;;;;;62.47;28.35;;;;;;;4.35;73.02;99046.56;4973196;28;20065;-86
2020/12/10 03:19:45;;;;;;;71.95;29.33;;;;;;;4.33;72.65;99048.41;4974687;28;20054;-86
2020/12/10 03:22:13;;;;;;;64.00;28.27;;;;;;;4.29;72.95;99038.09;4973008;28;20046;-86
2020/12/10 03:24:40;;;;;;;64.85;29.05;;;;;;;4.29;73.27;99032.03;4973401;28;20055;-86
2020/12/10 03:27:07;;;;;;;68.00;29.25;;;;;;;4.28;73.21;99022.53;4973798;28;20055;-87
2020/12/10 03:29:33;;;;;;;66.80;28.50;;;;;;;4.28;73.46;99025.13;4973324;28;20051;-86
2020/12/10 03:31:59;;;;;;;66.38;29.58;;;;;;;4.27;73.09;99016.47;4976629;28;20065;-87
2020/12/10 03:34:27;;;;;;;60.92;28.15;;;;;;;4.28;73.16;99014.72;4978566;28;20073;-86
2020/12/10 03:36:56;;;;;;;63.40;27.67;;;;;;;4.27;73.20;99016.47;4977046;28;20061;-87
2020/12/10 03:39:25;;;;;;;68.95;29.92;;;;;;;4.28;73.06;99007.75;4977469;28;20047;-87
2020/12/10 03:41:52;;;;;;;69.82;31.17;;;;;;;4.30;73.21;99010.31;4978508;28;20042;-86
2020/12/10 03:44:19;;;;;;;68.78;31.13;;;;;;;4.32;73.14;99012.81;4978167;28;20506;-87
2020/12/10 03:46:45;;;;;;;67.50;30.30;;;;;;;4.31;72.94;99009.38;4976779;28;20058;-86
2020/12/10 03:49:12;;;;;;;62.95;30.52;;;;;;;4.32;73.42;99012.81;4978298;28;20054;-86
2020/12/10 03:51:38;;;;;;;70.57;31.83;;;;;;;4.32;73.13;99013.69;4977916;28;20453;-86
2020/12/10 03:54:05;;;;;;;78.10;32.85;;;;;;;4.32;73.21;99011.06;4976755;28;20062;-86
2020/12/10 03:56:31;;;;;;;69.70;30.60;;;;;;;4.33;72.85;99009.31;4977847;28;20444;-86
2020/12/10 03:59:01;;;;;;;68.65;29.60;;;;;;;4.31;72.88;99004.16;4976896;28;20494;-86
2020/12/10 04:01:28;;;;;;;67.50;30.38;;;;;;;4.33;72.96;99004.09;4977808;28;20425;-86
2020/12/10 04:03:55;;;;;;;72.90;30.88;;;;;;;4.32;73.33;99000.66;4976840;28;20051;-86
2020/12/10 04:06:21;;;;;;;60.78;28.75;;;;;;;4.33;73.19;99004.09;5019394;23;20401;-85
2020/12/10 04:08:48;;;;;;;58.28;26.27;;;;;;;4.33;72.90;98999.72;4980084;28;20053;-85
2020/12/10 04:11:14;;;;;;;63.60;28.73;;;;;;;4.34;73.27;98997.97;4983822;28;20065;-85
2020/12/10 04:13:41;;;;;;;70.13;30.23;;;;;;;4.35;72.83;98994.44;4980717;28;20065;-86
2020/12/10 04:16:07;;;;;;;65.65;30.63;;;;;;;4.35;72.93;98991.84;4982175;28;20516;-86
2020/12/10 04:18:39;;;;;;;71.40;30.50;;;;;;;4.33;72.73;98991.91;4979868;28;20059;-85
2020/12/10 04:21:06;;;;;;;71.43;29.92;;;;;;;4.35;72.67;98994.44;4982775;28;20050;-87
2020/12/10 04:23:32;;;;;;;62.47;28.65;;;;;;;4.38;72.83;98999.53;4981489;28;20047;-84
2020/12/10 04:26:02;;;;;;;60.88;26.80;;;;;;;4.37;73.11;99003.06;4981763;28;20077;-86
2020/12/10 04:28:28;;;;;;;48.67;22.42;;;;;;;4.37;72.71;99008.28;4982725;28;20047;-87
2020/12/10 04:30:55;;;;;;;67.60;28.33;;;;;;;4.37;72.66;99009.09;4982771;28;20062;-86
2020/12/10 04:33:21;;;;;;;62.95;30.55;;;;;;;4.38;72.71;99008.19;4983364;28;20055;-84
2020/12/10 04:35:48;;;;;;;65.53;30.90;;;;;;;4.39;72.90;99001.22;4981452;28;20059;-85
2020/12/10 04:38:14;;;;;;;65.93;29.10;;;;;;;4.36;72.60;98997.00;4981863;28;20409;-85
2020/12/10 04:40:40;;;;;;;66.13;28.27;;;;;;;4.38;72.71;98999.53;4982182;28;20059;-86
2020/12/10 04:43:09;;;;;;;66.18;29.02;;;;;;;4.37;72.58;98992.66;4981967;28;20043;-86
2020/12/10 04:45:36;;;;;;;65.47;28.90;;;;;;;4.36;72.89;98996.13;4984154;28;20054;-86
2020/12/10 04:48:05;;;;;;;65.85;27.98;;;;;;;4.37;72.41;98992.66;4981750;28;20062;-87
2020/12/10 04:50:35;;;;;;;61.05;28.38;;;;;;;4.36;72.58;98990.94;4980047;28;20054;-85
2020/12/10 04:53:06;;;;;;;64.55;29.88;;;;;;;4.36;72.39;98986.56;4982577;28;20089;-85
2020/12/10 04:55:36;;;;;;;60.47;27.13;;;;;;;4.35;72.30;98991.84;4979957;28;20055;-86
2020/12/10 04:58:04;;;;;;;65.45;28.70;;;;;;;4.33;72.06;98988.47;4981147;28;20055;-84
2020/12/10 05:00:30;;;;;;;68.63;28.88;;;;;;;4.32;72.30;98990.22;4983090;28;20055;-84
2020/12/10 05:02:57;;;;;;;69.80;28.77;;;;;;;4.28;72.12;98989.53;4983183;28;20093;-86
2020/12/10 05:05:28;;;;;;;75.85;29.30;;;;;;;4.24;71.83;98994.91;4981191;28;20061;-87
2020/12/10 05:07:58;;;;;;;80.63;27.98;;;;;;;4.20;72.00;98994.22;4982321;28;20530;-87
2020/12/10 05:10:24;;;;;;;110.60;27.35;;;;;;;4.16;72.37;99000.47;4981070;28;20137;-86
2020/12/10 05:13:11;;;;;;;95.15;27.15;;;;;;;4.08;71.93;98989.53;4980721;28;20055;-86
2020/12/10 05:15:38;;;;;;;70.88;26.27;;;;;;;4.07;72.93;98995.66;4981723;28;20047;-86
2020/12/10 05:18:08;;;;;;;69.75;28.30;;;;;;;4.03;72.98;98990.56;4980749;28;20055;-85
2020/12/10 05:20:52;;;;;;;67.35;28.13;;;;;;;4.00;72.25;98995.06;4981610;28;20055;-85
2020/12/10 05:23:32;;;;;;;66.60;26.48;;;;;;;3.95;72.56;98995.25;4978862;28;20047;-86
2020/12/10 05:26:02;;;;;;;71.90;27.92;;;;;;;3.97;73.06;98997.78;4982959;28;20050;-86
2020/12/10 05:28:45;;;;;;;66.65;27.85;;;;;;;3.93;72.86;99001.44;4981940;28;20138;-86
2020/12/10 05:31:14;;;;;;;75.97;25.23;;;;;;;3.94;72.86;99003.97;4980130;28;20058;-87
2020/12/10 05:34:02;;;;;;;94.20;25.98;;;;;;;3.90;72.48;98998.03;4980650;28;20057;-86
2020/12/10 05:36:33;;;;;;;80.07;24.25;;;;;;;3.89;72.98;98992.91;4980678;28;20456;-86
2020/12/10 05:39:04;;;;;;;88.15;26.00;;;;;;;3.87;72.58;99000.78;4978437;28;20058;-87
2020/12/10 05:41:38;;;;;;;76.15;27.52;;;;;;;3.83;72.60;99001.81;4981545;28;20498;-87
2020/12/10 05:44:18;;;;;;;74.13;25.08;;;;;;;3.82;73.15;99007.09;4979841;28;20054;-86
2020/12/10 05:46:46;;;;;;;62.08;26.13;;;;;;;3.83;73.34;98998.34;4978784;28;20498;-85
2020/12/10 05:49:14;;;;;;;65.88;26.52;;;;;;;3.83;73.47;99003.56;4979399;28;20138;-87
2020/12/10 05:51:48;;;;;;;59.65;26.63;;;;;;;3.80;72.60;98996.72;4981745;28;20449;-88
2020/12/10 05:54:16;;;;;;;60.17;25.70;;;;;;;3.81;73.25;99005.41;4977159;28;20051;-86
2020/12/10 05:56:52;;;;;;;61.67;25.90;;;;;;;3.76;72.90;99006.44;4981220;28;20061;-86
2020/12/10 05:59:18;;;;;;;60.03;24.60;;;;;;;3.77;73.16;99017.69;4980891;28;20067;-87
2020/12/10 06:01:48;;;;;;;61.97;25.50;;;;;;;3.75;73.50;99012.56;4980902;28;20480;-85
2020/12/10 06:04:15;;;;;;;66.60;25.52;;;;;;;3.76;73.58;99013.38;4980091;28;20089;-84
2020/12/10 06:06:42;;;;;;;65.25;26.30;;;;;;;3.75;73.78;99007.34;4980848;28;20058;-85
2020/12/10 06:09:08;;;;;;;66.88;24.38;;;;;;;3.76;73.27;99011.66;4981285;28;20436;-84
2020/12/10 06:11:34;;;;;;;63.78;23.67;;;;;;;3.76;73.47;99013.38;4978539;28;20493;-88
2020/12/10 06:14:06;;;;;;;67.20;26.15;;;;;;;3.75;73.42;99012.56;4977448;28;20057;-85
2020/12/10 06:16:34;;;;;;;64.18;24.70;;;;;;;3.74;73.03;99010.84;4977652;28;20508;-88
2020/12/10 06:19:13;;;;;;;65.38;25.30;;;;;;;3.73;73.30;99013.50;4978628;28;20501;-86
2020/12/10 06:21:45;;;;;;;56.30;24.52;;;;;;;3.73;73.53;99014.38;4978098;28;20051;-85
2020/12/10 06:24:26;;;;;;;56.88;23.65;;;;;;;3.72;72.87;99011.81;4978888;28;20055;-85
2020/12/10 06:26:54;;;;;;;112.95;26.15;;;;;;;3.75;73.53;99009.09;4975499;28;20058;-85
2020/12/10 06:29:21;;;;;;;74.85;24.40;;;;;;;3.74;73.24;99003.03;4980988;28;20054;-86
2020/12/10 06:32:07;;;;;;;68.97;25.08;;;;;;;3.71;72.76;99008.38;4977842;28;20054;-86
2020/12/10 06:34:55;;;;;;;61.53;22.85;;;;;;;3.71;72.90;99002.31;4974651;28;20055;-86
2020/12/10 06:37:29;;;;;;;81.63;24.60;;;;;;;3.71;73.07;99005.78;4974095;28;20046;-85
2020/12/10 06:40:03;;;;;;;63.58;23.65;;;;;;;3.72;73.12;99012.69;4980364;28;20079;-85
2020/12/10 06:42:48;;;;;;;81.28;25.80;;;;;;;3.68;73.06;99021.53;4979880;28;20046;-86
2020/12/10 06:45:59;;;;;;;71.30;25.52;;;;;;;3.66;72.97;99018.13;4976805;28;20055;-87
2020/12/10 06:48:39;;;;;;;85.35;23.83;;;;;;;3.66;73.00;99018.13;4977888;28;20055;-85
2020/12/10 06:51:11;;;;;;;86.75;24.17;;;;;;;3.65;72.70;99016.44;4979270;28;20130;-88
2020/12/10 06:53:38;;;;;;;80.85;22.15;;;;;;;3.65;73.33;99013.81;4977376;28;20048;-88
2020/12/10 06:56:09;;;;;;;78.13;23.60;;;;;;;3.61;73.23;99018.31;4981253;28;20051;-88
2020/12/10 06:58:39;;;;;;;68.22;24.58;;;;;;;3.60;73.39;99015.78;4977376;28;20057;-86
2020/12/10 07:01:25;;;;;;;75.38;24.90;;;;;;;3.54;72.94;99010.81;4978771;28;20509;-86
2020/12/10 07:04:08;;;;;;;64.53;21.63;;;;;;;3.55;73.37;99013.34;4980202;28;20074;-85
2020/12/10 07:06:36;;;;;;;90.15;24.45;;;;;;;3.54;73.34;99009.06;4978123;28;20046;-86
2020/12/10 07:09:13;;;;;;;109.10;26.60;;;;;;;3.51;73.49;99017.84;4979833;28;20494;-86
2020/12/10 07:11:43;;;;;;;70.35;22.27;;;;;;;3.54;73.15;99013.44;4979971;28;20054;-85
2020/12/10 07:14:30;;;;;;;90.72;25.80;;;;;;;3.49;72.95;99018.81;4978260;28;20046;-87
2020/12/10 07:16:57;;;;;;;72.65;25.00;;;;;;;3.52;73.64;99014.31;4979277;28;20050;-88
2020/12/10 07:19:25;;;;;;;77.32;25.80;;;;;;;3.50;73.50;99016.16;4977491;28;20502;-85
2020/12/10 07:21:52;;;;;;;69.35;25.08;;;;;;;3.51;73.38;99025.63;4980123;28;20051;-85
2020/12/10 07:24:20;;;;;;;77.22;25.40;;;;;;;3.50;73.23;99026.56;4976818;28;20508;-86
2020/12/10 07:26:47;;;;;;;72.25;25.50;;;;;;;3.50;73.58;99023.94;4977974;28;20536;-88
2020/12/10 07:29:13;;;;;;;78.30;27.27;;;;;;;3.50;73.76;99025.69;4978542;28;20143;-88
2020/12/10 07:31:41;;;;;;;89.93;29.42;;;;;;;3.51;73.67;99029.97;4980364;28;20061;-88
2020/12/10 07:34:11;;;;;;;83.95;28.02;;;;;;;3.55;74.11;99030.72;4980427;28;20545;-88
2020/12/10 07:36:50;;;;;;;77.75;27.25;;;;;;;3.54;73.62;99032.47;4978224;28;20050;-85
2020/12/10 07:39:45;;;;;;;81.75;28.05;;;;;;;3.55;73.52;99028.13;4978865;28;20050;-85
2020/12/10 07:42:18;;;;;;;77.70;26.20;;;;;;;3.59;73.85;99021.91;4971536;28;20055;-86
2020/12/10 07:44:45;;;;;;;;;;;;;;;3.62;73.58;99017.41;4977790;28;20398;-88
2020/12/10 07:47:12;;;;;;;78.18;25.40;;;;;;;3.67;73.65;99017.22;4979590;28;19926;-88
2020/12/10 07:49:39;;;;;;;86.70;28.70;;;;;;;3.65;73.75;99021.63;4977140;28;20058;-87
2020/12/10 07:52:11;;;;;;;86.13;29.40;;;;;;;3.63;73.47;99023.47;4978503;28;20050;-86
2020/12/10 07:54:56;;;;;;;81.93;28.70;;;;;;;3.61;73.64;99022.66;4978477;28;20050;-85
2020/12/10 07:57:29;;;;;;;86.50;27.27;;;;;;;3.62;73.81;99022.59;4977306;28;20058;-88
2020/12/10 08:00:06;;;;;;;;;;;;;;;3.66;73.56;99023.31;4979475;28;20055;-86
2020/12/10 08:03:04;;;;;;;72.60;23.70;;;;;;;3.67;73.54;99030.25;4978920;28;19922;-86
2020/12/10 08:05:32;;;;;;;86.35;27.90;;;;;;;3.70;74.27;99031.88;4978195;28;20051;-88
2020/12/10 08:07:59;;;;;;;82.70;27.48;;;;;;;3.71;74.38;99029.22;4973546;28;20050;-87
2020/12/10 08:10:28;;;;;;;88.93;30.90;;;;;;;3.72;73.87;99027.44;4977319;28;20106;-87
2020/12/10 08:13:07;;;;;;;74.25;28.25;;;;;;;3.70;73.91;99022.28;4977877;28;20046;-88
2020/12/10 08:15:34;;;;;;;85.80;28.17;;;;;;;3.74;73.91;99026.47;4978276;28;20050;-86
2020/12/10 08:18:05;;;;;;;81.70;28.98;;;;;;;3.74;73.95;99029.06;4979193;28;20089;-86
2020/12/10 08:20:43;;;;;;;87.65;29.38;;;;;;;3.73;73.77;99027.38;4980183;28;20105;-85
2020/12/10 08:23:13;;;;;;;84.82;29.60;;;;;;;3.77;74.41;99020.28;4984481;28;20089;-85
2020/12/10 08:25:42;;;;;;;81.53;28.23;;;;;;;3.79;74.26;99013.28;4981718;28;20066;-89
2020/12/10 08:28:11;;;;;;;92.35;29.80;;;;;;;3.82;74.49;99012.28;4982050;28;20054;-88
2020/12/10 08:30:49;;;;;;;86.10;29.92;;;;;;;3.82;74.10;99012.28;4983555;28;20054;-88
2020/12/10 08:33:16;;;;;;;82.05;28.25;;;;;;;3.89;74.54;99011.16;4977481;28;20134;-86
2020/12/10 08:35:43;;;;;;;89.53;30.48;;;;;;;3.93;74.43;99010.09;4980292;28;20062;-86
2020/12/10 08:38:10;;;;;;;85.65;30.10;;;;;;;3.95;74.52;98997.84;4979714;28;20057;-85
2020/12/10 08:40:38;;;;;;;79.72;30.27;;;;;;;3.98;74.57;98997.72;4978322;28;20564;-86
2020/12/10 08:43:19;;;;;;;89.75;29.77;;;;;;;3.99;74.19;98994.22;4982077;28;20043;-85
2020/12/10 08:45:46;;;;;;;85.50;29.92;;;;;;;4.02;74.15;98999.31;4978915;28;20055;-85
2020/12/10 08:48:23;;;;;;;80.13;30.08;;;;;;;4.01;74.18;98997.59;4980861;28;20054;-86
2020/12/10 08:51:00;;;;;;;82.45;30.00;;;;;;;3.99;73.66;98996.81;4982095;28;20050;-86
2020/12/10 08:53:29;;;;;;;93.47;29.65;;;;;;;4.04;74.42;99000.06;4981299;28;20050;-85
2020/12/10 08:55:57;;;;;;;84.70;30.88;;;;;;;4.04;74.04;98996.63;4978563;28;20490;-85
2020/12/10 08:58:28;;;;;;;87.60;28.85;;;;;;;4.04;74.06;98999.25;4975962;28;20050;-85
2020/12/10 09:00:56;;;;;;;84.38;29.48;;;;;;;4.07;74.41;98998.25;4982598;28;20058;-86
2020/12/10 09:03:26;;;;;;;87.38;31.05;;;;;;;4.08;74.16;98997.34;4982138;28;20046;-86
2020/12/10 09:05:54;;;;;;;95.65;32.03;;;;;;;4.12;74.58;98996.31;4980715;28;20520;-86
2020/12/10 09:08:20;;;;;;;86.28;29.08;;;;;;;4.16;74.97;98998.69;4979965;28;20057;-88
2020/12/10 09:10:46;;;;;;;85.32;31.45;;;;;;;4.20;74.67;98998.56;4979657;28;20054;-88
2020/12/10 09:13:15;;;;;;;82.70;27.98;;;;;;;4.23;74.77;98999.28;4980814;28;20091;-87
2020/12/10 09:15:43;;;;;;;83.20;29.25;;;;;;;4.28;74.46;98994.72;4980599;28;20062;-85
2020/12/10 09:18:11;;;;;;;77.70;28.35;;;;;;;4.32;74.47;99002.41;4980781;28;20054;-85
2020/12/10 09:20:38;;;;;;;84.75;28.58;;;;;;;4.36;74.24;99003.97;4981644;28;20050;-85
2020/12/10 09:23:04;;;;;;;84.28;29.10;;;;;;;4.38;74.39;98997.75;4981032;28;20054;-85
2020/12/10 09:25:30;;;;;;;77.10;29.40;;;;;;;4.42;74.44;98990.69;4980160;28;20050;-86
2020/12/10 09:27:56;;;;;;;82.03;29.45;;;;;;;4.43;74.51;98995.81;4977697;28;20047;-85
2020/12/10 09:30:23;;;;;;;73.88;26.58;;;;;;;4.47;74.47;98998.28;4982325;28;20055;-84
2020/12/10 09:32:50;;;;;;;84.13;28.40;;;;;;;4.49;74.08;98994.69;4980000;28;20135;-84
2020/12/10 09:35:16;;;;;;;76.93;26.95;;;;;;;4.51;74.20;98995.47;4977918;28;20450;-87
2020/12/10 09:37:43;;;;;;;75.22;27.25;;;;;;;4.52;74.17;98994.56;4979453;28;20055;-86
2020/12/10 09:40:12;;;;;;;73.80;26.67;;;;;;;4.54;73.91;99000.56;4981749;28;20047;-86
2020/12/10 09:42:44;;;;;;;81.70;28.38;;;;;;;4.56;74.13;99000.47;4980269;28;20057;-86
2020/12/10 09:45:19;;;;;;;75.57;27.02;;;;;;;4.61;74.27;99000.28;4980687;28;20064;-84
2020/12/10 09:47:46;;;;;;;;;;;;;;;4.64;73.45;99000.97;4982969;28;20417;-85
2020/12/10 09:52:55;;;;;;;67.43;25.95;;;;;;;4.70;73.82;98994.66;4979923;28;20484;-86
2020/12/10 09:58:08;;;;;;;78.38;27.55;;;;;;;4.68;73.85;98996.50;4977532;28;20053;-85
2020/12/10 10:00:38;;;;;;;76.53;26.45;;;;;;;4.69;73.94;99000.78;4981199;28;20050;-85
2020/12/10 10:03:06;;;;;;;70.72;25.50;;;;;;;4.71;74.12;98996.31;4976999;28;20047;-85
2020/12/10 10:05:52;;;;;;;72.35;25.17;;;;;;;4.76;74.44;98999.59;4981169;28;20051;-85
2020/12/10 10:08:22;;;;;;;72.05;27.15;;;;;;;4.79;74.80;98999.44;5019399;23;20057;-91
2020/12/10 10:10:49;;;;;;;76.38;26.33;;;;;;;4.84;74.39;98994.03;4974764;28;20065;-92
2020/12/10 10:13:15;;;;;;;68.47;25.90;;;;;;;4.90;74.73;98990.31;4975246;28;20489;-92
2020/12/10 10:15:42;;;;;;;71.35;26.38;;;;;;;4.95;74.14;98988.31;4975564;28;20394;-92
2020/12/10 10:18:08;;;;;;;70.40;25.63;;;;;;;5.00;74.16;98990.69;4974464;28;20046;-91
2020/12/10 10:20:37;;;;;;;66.25;24.00;;;;;;;5.03;74.06;98998.38;4975682;28;20054;-91
2020/12/10 10:23:03;;;;;;;69.50;25.08;;;;;;;5.07;74.10;98990.38;4975173;28;20416;-92
2020/12/10 10:25:29;;;;;;;66.15;24.58;;;;;;;5.11;74.24;98984.97;4975520;28;20109;-91
2020/12/10 10:27:56;;;;;;;65.57;25.77;;;;;;;5.15;74.07;98983.91;4974203;28;20051;-91
2020/12/10 10:30:25;;;;;;;71.93;26.20;;;;;;;5.18;74.37;98979.41;4975413;28;20057;-91
2020/12/10 10:32:52;;;;;;;69.70;26.17;;;;;;;5.25;74.08;98981.72;4973817;28;20050;-91
2020/12/10 10:35:18;;;;;;;74.32;26.75;;;;;;;5.28;74.06;98976.38;4975244;28;20051;-91
2020/12/10 10:37:46;;;;;;;63.03;25.55;;;;;;;5.33;73.98;98979.59;4975138;28;20069;-92
2020/12/10 10:40:12;;;;;;;63.13;23.73;;;;;;;5.38;74.18;98968.94;4974053;28;20065;-92
2020/12/10 10:42:38;;;;;;;71.40;25.17;;;;;;;5.41;73.85;98974.00;4973611;28;20051;-92
2020/12/10 10:45:04;;;;;;;67.70;25.02;;;;;;;5.45;73.54;98968.56;4973938;28;20051;-92
2020/12/10 10:47:31;;;;;;;59.72;22.95;;;;;;;5.48;73.52;98968.44;4973749;28;20061;-92
2020/12/10 10:49:57;;;;;;;58.67;23.45;;;;;;;5.52;73.30;98965.66;4974118;28;20134;-92
2020/12/10 10:52:23;;;;;;;60.75;22.63;;;;;;;5.52;73.09;98970.88;4973802;28;20047;-91
2020/12/10 10:54:49;;;;;;;58.88;22.73;;;;;;;5.52;73.33;98969.13;4974024;28;20055;-91
2020/12/10 10:57:16;;;;;;;57.78;22.88;;;;;;;5.52;73.46;98963.91;4974647;28;20054;-91
2020/12/10 10:59:42;;;;;;;62.55;24.42;;;;;;;5.53;73.45;98957.75;4974797;28;20057;-91
2020/12/10 11:02:08;;;;;;;72.10;25.38;;;;;;;5.56;73.54;98962.81;4974411;28;20050;-91
2020/12/10 11:04:34;;;;;;;70.63;24.73;;;;;;;5.58;73.42;98963.59;4973727;28;20061;-91
2020/12/10 11:07:00;;;;;;;69.32;25.35;;;;;;;5.61;73.34;98960.81;4973498;28;20498;-91
2020/12/10 11:09:26;;;;;;;64.32;23.58;;;;;;;5.65;73.52;98966.75;4973785;28;20057;-91
2020/12/10 11:11:54;;;;;;;63.58;25.58;;;;;;;5.67;73.67;98964.06;4974565;28;20057;-91
2020/12/10 11:14:20;;;;;;;76.15;25.10;;;;;;;5.70;73.71;98967.38;4973416;28;20532;-91
2020/12/10 11:16:48;;;;;;;67.43;25.73;;;;;;;5.74;73.44;98960.22;4974495;28;20047;-91
2020/12/10 11:19:14;;;;;;;71.75;25.73;;;;;;;5.77;73.38;98957.47;4973501;28;20110;-91
2020/12/10 11:21:40;;;;;;;72.93;26.58;;;;;;;5.81;73.61;98953.78;4973611;28;20394;-91
2020/12/10 11:24:06;;;;;;;71.53;25.55;;;;;;;5.83;73.23;98948.47;4973255;28;20046;-91
2020/12/10 11:26:33;;;;;;;77.35;26.70;;;;;;;5.85;73.07;98955.31;4973433;28;20057;-91
2020/12/10 11:28:59;;;;;;;70.63;27.92;;;;;;;5.85;72.39;98951.84;4974691;28;20072;-91
2020/12/10 11:31:26;;;;;;;77.00;26.65;;;;;;;5.83;72.38;98954.53;4974751;28;20065;-92
2020/12/10 11:33:52;;;;;;;74.50;26.02;;;;;;;5.80;72.45;98954.69;4973347;28;20414;-92
2020/12/10 11:36:19;;;;;;;67.80;26.98;;;;;;;5.80;72.73;98949.47;4974689;28;20051;-91
2020/12/10 11:38:45;;;;;;;66.35;24.73;;;;;;;5.79;72.76;98941.72;4974498;28;20066;-91
2020/12/10 11:41:11;;;;;;;73.65;28.15;;;;;;;5.76;72.59;98936.66;4974323;28;20055;-91